sensor_id;sensor_type;location;lat;lon;timestamp;pressure;altitude;pressure_sealevel;temperature;humidity
23427;BME280;41148;45.420;10.952;2022-10-31T00:01:49;101372.84;;;15.44;78.97
23427;BME280;41148;45.420;10.952;2022-10-31T00:04:16;101372.84;;;15.44;78.46
23427;BME280;41148;45.420;10.952;2022-10-31T00:06:43;101371.09;;;15.43;78.19
23427;BME280;41148;45.420;10.952;2022-10-31T00:09:11;101371.97;;;15.43;78.26
23427;BME280;41148;45.420;10.952;2022-10-31T00:11:38;101367.66;;;15.39;78.37
23427;BME280;41148;45.420;10.952;2022-10-31T00:14:05;101374.84;;;15.39;78.29
23427;BME280;41148;45.420;10.952;2022-10-31T00:16:33;101369.69;;;15.33;78.30
23427;BME280;41148;45.420;10.952;2022-10-31T00:19:01;101369.00;;;15.28;78.41
23427;BME280;41148;45.420;10.952;2022-10-31T00:21:29;101374.59;;;15.22;78.67
23427;BME280;41148;45.420;10.952;2022-10-31T00:23:57;101369.16;;;15.23;78.59
23427;BME280;41148;45.420;10.952;2022-10-31T00:26:28;101373.50;;;15.27;78.11
23427;BME280;41148;45.420;10.952;2022-10-31T00:28:56;101366.25;;;15.29;77.88
23427;BME280;41148;45.420;10.952;2022-10-31T00:31:23;101368.00;;;15.30;77.62
23427;BME280;41148;45.420;10.952;2022-10-31T00:33:51;101366.25;;;15.29;77.49
23427;BME280;41148;45.420;10.952;2022-10-31T00:36:18;101365.31;;;15.30;77.51
23427;BME280;41148;45.420;10.952;2022-10-31T00:38:46;101368.94;;;15.29;77.42
23427;BME280;41148;45.420;10.952;2022-10-31T00:41:15;101374.44;;;15.26;77.69
23427;BME280;41148;45.420;10.952;2022-10-31T00:43:42;101372.78;;;15.22;77.66
23427;BME280;41148;45.420;10.952;2022-10-31T00:46:10;101368.22;;;15.24;77.35
23427;BME280;41148;45.420;10.952;2022-10-31T00:48:37;101366.47;;;15.23;77.54
23427;BME280;41148;45.420;10.952;2022-10-31T00:51:05;101363.91;;;15.20;77.68
23427;BME280;41148;45.420;10.952;2022-10-31T00:53:32;101371.09;;;15.20;77.65
23427;BME280;41148;45.420;10.952;2022-10-31T00:56:00;101371.16;;;15.18;77.84
23427;BME280;41148;45.420;10.952;2022-10-31T00:58:46;101364.84;;;15.19;77.64
23427;BME280;41148;45.420;10.952;2022-10-31T01:01:14;101368.34;;;15.21;77.44
23427;BME280;41148;45.420;10.952;2022-10-31T01:03:41;101362.03;;;15.22;77.57
23427;BME280;41148;45.420;10.952;2022-10-31T01:06:12;101362.09;;;15.21;77.57
23427;BME280;41148;45.420;10.952;2022-10-31T01:08:39;101356.84;;;15.17;77.76
23427;BME280;41148;45.420;10.952;2022-10-31T01:11:11;101355.09;;;15.16;77.73
23427;BME280;41148;45.420;10.952;2022-10-31T01:13:40;101355.19;;;15.13;77.65
23427;BME280;41148;45.420;10.952;2022-10-31T01:16:08;101355.63;;;15.01;78.81
23427;BME280;41148;45.420;10.952;2022-10-31T01:18:36;101354.81;;;14.99;78.66
23427;BME280;41148;45.420;10.952;2022-10-31T01:21:08;101355.75;;;14.98;78.84
23427;BME280;41148;45.420;10.952;2022-10-31T01:23:36;101354.03;;;14.96;78.81
23427;BME280;41148;45.420;10.952;2022-10-31T01:28:32;101350.41;;;14.98;79.01
23427;BME280;41148;45.420;10.952;2022-10-31T01:31:00;101345.97;;;14.97;78.72
23427;BME280;41148;45.420;10.952;2022-10-31T01:33:27;101339.72;;;14.97;78.70
23427;BME280;41148;45.420;10.952;2022-10-31T01:35:54;101336.16;;;14.96;78.93
23427;BME280;41148;45.420;10.952;2022-10-31T01:38:21;101343.38;;;14.94;79.09
23427;BME280;41148;45.420;10.952;2022-10-31T01:40:50;101340.81;;;14.91;79.27
23427;BME280;41148;45.420;10.952;2022-10-31T01:43:18;101345.22;;;14.92;79.37
23427;BME280;41148;45.420;10.952;2022-10-31T01:45:51;101342.66;;;14.89;79.30
23427;BME280;41148;45.420;10.952;2022-10-31T01:48:21;101345.00;;;14.73;79.81
23427;BME280;41148;45.420;10.952;2022-10-31T01:50:51;101341.25;;;14.52;80.92
23427;BME280;41148;45.420;10.952;2022-10-31T01:53:20;101345.88;;;14.47;81.52
23427;BME280;41148;45.420;10.952;2022-10-31T01:55:52;101339.34;;;14.56;80.84
23427;BME280;41148;45.420;10.952;2022-10-31T01:58:22;101337.53;;;14.56;80.73
23427;BME280;41148;45.420;10.952;2022-10-31T02:00:51;101336.75;;;14.53;81.19
23427;BME280;41148;45.420;10.952;2022-10-31T02:03:20;101335.94;;;14.51;81.61
23427;BME280;41148;45.420;10.952;2022-10-31T02:05:49;101330.41;;;14.55;81.39
23427;BME280;41148;45.420;10.952;2022-10-31T02:08:26;101330.28;;;14.60;81.44
23427;BME280;41148;45.420;10.952;2022-10-31T02:10:54;101323.91;;;14.63;81.42
23427;BME280;41148;45.420;10.952;2022-10-31T02:13:23;101321.97;;;14.68;81.18
23427;BME280;41148;45.420;10.952;2022-10-31T02:15:53;101321.84;;;14.71;81.49
23427;BME280;41148;45.420;10.952;2022-10-31T02:18:21;101323.66;;;14.70;81.79
23427;BME280;41148;45.420;10.952;2022-10-31T02:20:58;101320.00;;;14.73;82.01
23427;BME280;41148;45.420;10.952;2022-10-31T02:34:18;101309.13;;;14.76;81.80
23427;BME280;41148;45.420;10.952;2022-10-31T02:42:11;101312.94;;;14.70;82.33
23427;BME280;41148;45.420;10.952;2022-10-31T02:44:50;101311.19;;;14.69;82.69
23427;BME280;41148;45.420;10.952;2022-10-31T02:47:18;101312.06;;;14.70;82.53
23427;BME280;41148;45.420;10.952;2022-10-31T02:50:02;101313.00;;;14.69;82.66
23427;BME280;41148;45.420;10.952;2022-10-31T02:52:33;101312.44;;;14.59;83.04
23427;BME280;41148;45.420;10.952;2022-10-31T02:55:11;101312.38;;;14.60;82.95
23427;BME280;41148;45.420;10.952;2022-10-31T02:57:40;101310.44;;;14.64;82.56
23427;BME280;41148;45.420;10.952;2022-10-31T03:00:09;101314.00;;;14.65;82.44
23427;BME280;41148;45.420;10.952;2022-10-31T03:08:21;101311.88;;;14.49;83.16
23427;BME280;41148;45.420;10.952;2022-10-31T03:10:55;101314.88;;;14.39;83.61
23427;BME280;41148;45.420;10.952;2022-10-31T03:18:40;101315.91;;;14.35;83.14
23427;BME280;41148;45.420;10.952;2022-10-31T03:21:11;101313.41;;;14.30;82.97
23427;BME280;41148;45.420;10.952;2022-10-31T03:23:39;101320.94;;;14.17;83.67
23427;BME280;41148;45.420;10.952;2022-10-31T03:26:07;101323.72;;;14.14;83.75
23427;BME280;41148;45.420;10.952;2022-10-31T03:28:55;101322.13;;;14.09;83.61
23427;BME280;41148;45.420;10.952;2022-10-31T03:31:25;101323.78;;;14.13;83.25
23427;BME280;41148;45.420;10.952;2022-10-31T03:33:54;101325.47;;;14.15;83.15
23427;BME280;41148;45.420;10.952;2022-10-31T03:36:24;101326.34;;;14.16;82.80
23427;BME280;41148;45.420;10.952;2022-10-31T03:38:51;101321.00;;;14.16;82.92
23427;BME280;41148;45.420;10.952;2022-10-31T03:41:20;101319.19;;;14.16;83.24
23427;BME280;41148;45.420;10.952;2022-10-31T03:44:00;101321.00;;;14.16;83.08
23427;BME280;41148;45.420;10.952;2022-10-31T03:46:29;101321.94;;;14.15;83.07
23427;BME280;41148;45.420;10.952;2022-10-31T03:48:58;101330.84;;;14.15;83.26
23427;BME280;41148;45.420;10.952;2022-10-31T03:51:26;101335.31;;;14.15;83.40
23427;BME280;41148;45.420;10.952;2022-10-31T03:56:42;101333.53;;;14.15;83.21
23427;BME280;41148;45.420;10.952;2022-10-31T03:59:23;101337.06;;;14.16;83.43
23427;BME280;41148;45.420;10.952;2022-10-31T04:01:53;101333.56;;;14.14;83.32
23427;BME280;41148;45.420;10.952;2022-10-31T04:04:23;101332.81;;;14.10;83.55
23427;BME280;41148;45.420;10.952;2022-10-31T04:06:51;101340.03;;;14.07;83.64
23427;BME280;41148;45.420;10.952;2022-10-31T04:09:20;101339.16;;;14.06;83.94
23427;BME280;41148;45.420;10.952;2022-10-31T04:11:49;101338.28;;;14.06;83.76
23427;BME280;41148;45.420;10.952;2022-10-31T04:14:31;101334.75;;;14.05;83.63
23427;BME280;41148;45.420;10.952;2022-10-31T04:17:01;101345.47;;;14.05;83.62
23427;BME280;41148;45.420;10.952;2022-10-31T04:19:34;101338.59;;;13.96;84.00
23427;BME280;41148;45.420;10.952;2022-10-31T04:22:02;101342.09;;;13.98;83.97
23427;BME280;41148;45.420;10.952;2022-10-31T04:24:29;101344.78;;;13.98;83.70
23427;BME280;41148;45.420;10.952;2022-10-31T04:26:57;101350.97;;;14.00;83.79
23427;BME280;41148;45.420;10.952;2022-10-31T04:29:24;101350.09;;;14.00;83.26
23427;BME280;41148;45.420;10.952;2022-10-31T04:31:52;101344.00;;;13.95;83.18
23427;BME280;41148;45.420;10.952;2022-10-31T04:34:20;101338.53;;;13.98;83.33
23427;BME280;41148;45.420;10.952;2022-10-31T04:36:49;101342.06;;;14.00;83.60
23427;BME280;41148;45.420;10.952;2022-10-31T04:39:17;101340.25;;;14.00;83.51
23427;BME280;41148;45.420;10.952;2022-10-31T04:42:23;101345.75;;;13.96;83.78
23427;BME280;41148;45.420;10.952;2022-10-31T04:44:51;101338.69;;;13.93;84.20
23427;BME280;41148;45.420;10.952;2022-10-31T04:47:18;101341.28;;;13.96;84.26
23427;BME280;41148;45.420;10.952;2022-10-31T04:49:45;101343.19;;;13.93;84.27
23427;BME280;41148;45.420;10.952;2022-10-31T04:52:13;101346.72;;;13.93;84.28
23427;BME280;41148;45.420;10.952;2022-10-31T04:54:40;101342.44;;;13.88;84.62
23427;BME280;41148;45.420;10.952;2022-10-31T04:57:26;101345.31;;;13.82;84.68
23427;BME280;41148;45.420;10.952;2022-10-31T04:59:54;101348.06;;;13.79;84.98
23427;BME280;41148;45.420;10.952;2022-10-31T05:02:23;101339.31;;;13.73;84.96
23427;BME280;41148;45.420;10.952;2022-10-31T05:04:54;101344.78;;;13.70;85.55
23427;BME280;41148;45.420;10.952;2022-10-31T05:07:22;101341.94;;;13.75;85.44
23427;BME280;41148;45.420;10.952;2022-10-31T05:09:49;101344.63;;;13.75;86.01
23427;BME280;41148;45.420;10.952;2022-10-31T05:12:18;101345.38;;;13.79;85.56
23427;BME280;41148;45.420;10.952;2022-10-31T05:15:21;101351.63;;;13.79;85.53
23427;BME280;41148;45.420;10.952;2022-10-31T05:18:07;101351.63;;;13.79;85.53
23427;BME280;41148;45.420;10.952;2022-10-31T05:20:54;101348.88;;;13.82;85.58
23427;BME280;41148;45.420;10.952;2022-10-31T05:23:35;101345.16;;;13.86;85.12
23427;BME280;41148;45.420;10.952;2022-10-31T05:26:04;101347.06;;;13.83;85.23
23427;BME280;41148;45.420;10.952;2022-10-31T05:28:33;101350.69;;;13.82;85.01
23427;BME280;41148;45.420;10.952;2022-10-31T05:31:01;101347.13;;;13.81;85.27
23427;BME280;41148;45.420;10.952;2022-10-31T05:33:29;101346.19;;;13.82;85.08
23427;BME280;41148;45.420;10.952;2022-10-31T05:36:20;101342.72;;;13.79;85.22
23427;BME280;41148;45.420;10.952;2022-10-31T05:38:53;101342.91;;;13.72;85.51
23427;BME280;41148;45.420;10.952;2022-10-31T05:41:25;101352.75;;;13.72;85.37
23427;BME280;41148;45.420;10.952;2022-10-31T05:44:01;101351.06;;;13.68;85.66
23427;BME280;41148;45.420;10.952;2022-10-31T05:46:31;101354.63;;;13.68;85.67
23427;BME280;41148;45.420;10.952;2022-10-31T05:49:00;101345.81;;;13.65;85.63
23427;BME280;41148;45.420;10.952;2022-10-31T05:51:47;101342.38;;;13.61;85.62
23427;BME280;41148;45.420;10.952;2022-10-31T05:54:15;101340.75;;;13.56;85.33
23427;BME280;41148;45.420;10.952;2022-10-31T05:56:44;101346.19;;;13.53;85.25
23427;BME280;41148;45.420;10.952;2022-10-31T05:59:12;101347.25;;;13.47;85.17
23427;BME280;41148;45.420;10.952;2022-10-31T06:01:39;101345.53;;;13.44;85.91
23427;BME280;41148;45.420;10.952;2022-10-31T06:04:20;101347.34;;;13.44;85.35
23427;BME280;41148;45.420;10.952;2022-10-31T06:06:48;101349.19;;;13.42;84.91
23427;BME280;41148;45.420;10.952;2022-10-31T06:09:15;101346.69;;;13.36;85.02
23427;BME280;41148;45.420;10.952;2022-10-31T06:11:44;101357.56;;;13.30;85.60
23427;BME280;41148;45.420;10.952;2022-10-31T06:14:26;101350.41;;;13.30;85.62
23427;BME280;41148;45.420;10.952;2022-10-31T06:16:55;101357.56;;;13.30;85.82
23427;BME280;41148;45.420;10.952;2022-10-31T06:19:41;101358.41;;;13.32;86.00
23427;BME280;41148;45.420;10.952;2022-10-31T06:22:10;101353.00;;;13.33;85.92
23427;BME280;41148;45.420;10.952;2022-10-31T06:24:42;101360.84;;;13.39;86.40
23427;BME280;41148;45.420;10.952;2022-10-31T06:27:20;101354.50;;;13.43;86.06
23427;BME280;41148;45.420;10.952;2022-10-31T06:29:48;101353.56;;;13.44;86.32
23427;BME280;41148;45.420;10.952;2022-10-31T06:32:30;101361.28;;;13.55;86.20
23427;BME280;41148;45.420;10.952;2022-10-31T06:34:58;101370.94;;;13.61;85.86
23427;BME280;41148;45.420;10.952;2022-10-31T06:37:25;101373.56;;;13.62;85.52
23427;BME280;41148;45.420;10.952;2022-10-31T06:39:58;101367.25;;;13.65;85.43
23427;BME280;41148;45.420;10.952;2022-10-31T06:42:25;101372.56;;;13.66;85.16
23427;BME280;41148;45.420;10.952;2022-10-31T06:44:52;101378.59;;;13.73;85.27
23427;BME280;41148;45.420;10.952;2022-10-31T06:47:52;101373.25;;;13.73;84.92
23427;BME280;41148;45.420;10.952;2022-10-31T06:51:01;101374.03;;;13.77;84.82
23427;BME280;41148;45.420;10.952;2022-10-31T06:53:28;101383.75;;;13.81;84.74
23427;BME280;41148;45.420;10.952;2022-10-31T06:55:57;101380.97;;;13.84;84.67
23427;BME280;41148;45.420;10.952;2022-10-31T06:58:24;101382.66;;;13.86;84.78
23427;BME280;41148;45.420;10.952;2022-10-31T07:00:58;101389.78;;;13.87;84.65
23427;BME280;41148;45.420;10.952;2022-10-31T07:03:26;101386.09;;;13.91;84.66
23427;BME280;41148;45.420;10.952;2022-10-31T07:05:54;101387.69;;;13.97;84.45
23427;BME280;41148;45.420;10.952;2022-10-31T07:08:22;101399.19;;;14.00;84.05
23427;BME280;41148;45.420;10.952;2022-10-31T07:10:51;101390.31;;;13.98;84.60
23427;BME280;41148;45.420;10.952;2022-10-31T07:13:19;101396.31;;;14.07;83.93
23427;BME280;41148;45.420;10.952;2022-10-31T07:16:01;101398.91;;;14.10;83.87
23427;BME280;41148;45.420;10.952;2022-10-31T07:18:32;101405.06;;;13.84;85.29
23427;BME280;41148;45.420;10.952;2022-10-31T07:21:00;101404.09;;;13.86;86.23
23427;BME280;41148;45.420;10.952;2022-10-31T07:23:27;101404.41;;;14.05;85.23
23427;BME280;41148;45.420;10.952;2022-10-31T07:26:30;101411.19;;;14.17;84.55
23427;BME280;41148;45.420;10.952;2022-10-31T07:28:57;101409.94;;;14.28;84.24
23427;BME280;41148;45.420;10.952;2022-10-31T07:31:27;101409.66;;;14.36;84.09
23427;BME280;41148;45.420;10.952;2022-10-31T07:34:17;101408.47;;;14.46;84.03
23427;BME280;41148;45.420;10.952;2022-10-31T07:37:15;101412.16;;;14.70;82.77
23427;BME280;41148;45.420;10.952;2022-10-31T07:39:42;101408.25;;;14.80;82.05
23427;BME280;41148;45.420;10.952;2022-10-31T07:42:09;101418.78;;;14.86;81.76
23427;BME280;41148;45.420;10.952;2022-10-31T07:44:42;101421.09;;;14.97;81.18
23427;BME280;41148;45.420;10.952;2022-10-31T07:47:51;101423.97;;;14.91;82.23
23427;BME280;41148;45.420;10.952;2022-10-31T07:50:37;101430.84;;;15.00;81.57
23427;BME280;41148;45.420;10.952;2022-10-31T07:53:23;101430.97;;;14.95;82.40
23427;BME280;41148;45.420;10.952;2022-10-31T07:55:57;101428.13;;;15.26;81.95
23427;BME280;41148;45.420;10.952;2022-10-31T07:58:28;101431.63;;;17.11;73.10
23427;BME280;41148;45.420;10.952;2022-10-31T08:00:58;101429.75;;;19.03;64.50
23427;BME280;41148;45.420;10.952;2022-10-31T08:03:33;101435.59;;;19.45;62.00
23427;BME280;41148;45.420;10.952;2022-10-31T08:06:26;101435.72;;;18.92;63.21
23427;BME280;41148;45.420;10.952;2022-10-31T08:09:02;101434.41;;;20.01;60.39
23427;BME280;41148;45.420;10.952;2022-10-31T08:11:31;101439.78;;;20.66;56.91
23427;BME280;41148;45.420;10.952;2022-10-31T08:14:01;101438.75;;;20.83;56.81
23427;BME280;41148;45.420;10.952;2022-10-31T08:16:29;101432.50;;;21.57;53.75
23427;BME280;41148;45.420;10.952;2022-10-31T08:19:00;101432.69;;;22.66;50.52
23427;BME280;41148;45.420;10.952;2022-10-31T08:21:31;101433.94;;;21.34;52.99
23427;BME280;41148;45.420;10.952;2022-10-31T08:24:00;101427.09;;;21.85;52.58
23427;BME280;41148;45.420;10.952;2022-10-31T08:26:28;101432.22;;;22.04;51.37
23427;BME280;41148;45.420;10.952;2022-10-31T08:28:56;101435.06;;;22.17;50.91
23427;BME280;41148;45.420;10.952;2022-10-31T08:31:27;101428.84;;;21.86;51.53
23427;BME280;41148;45.420;10.952;2022-10-31T08:34:19;101441.38;;;21.30;52.88
23427;BME280;41148;45.420;10.952;2022-10-31T08:37:04;101440.34;;;20.08;56.05
23427;BME280;41148;45.420;10.952;2022-10-31T08:39:40;101449.44;;;19.39;58.06
23427;BME280;41148;45.420;10.952;2022-10-31T08:42:07;101456.50;;;18.90;59.55
23427;BME280;41148;45.420;10.952;2022-10-31T08:44:34;101459.31;;;18.13;61.92
23427;BME280;41148;45.420;10.952;2022-10-31T08:47:03;101456.31;;;17.82;63.65
23427;BME280;41148;45.420;10.952;2022-10-31T08:49:33;101461.97;;;17.55;65.20
23427;BME280;41148;45.420;10.952;2022-10-31T08:52:00;101457.53;;;17.74;65.42
23427;BME280;41148;45.420;10.952;2022-10-31T08:54:32;101452.09;;;17.95;64.40
23427;BME280;41148;45.420;10.952;2022-10-31T08:57:32;101451.00;;;17.80;64.47
23427;BME280;41148;45.420;10.952;2022-10-31T09:00:00;101451.28;;;17.93;64.25
23427;BME280;41148;45.420;10.952;2022-10-31T09:02:46;101452.41;;;18.08;64.30
23427;BME280;41148;45.420;10.952;2022-10-31T09:05:13;101445.97;;;17.91;65.35
23427;BME280;41148;45.420;10.952;2022-10-31T09:07:41;101447.00;;;17.68;65.85
23427;BME280;41148;45.420;10.952;2022-10-31T09:10:08;101449.97;;;17.62;66.36
23427;BME280;41148;45.420;10.952;2022-10-31T09:12:37;101443.56;;;17.65;66.88
23427;BME280;41148;45.420;10.952;2022-10-31T09:15:23;101438.16;;;17.85;66.02
23427;BME280;41148;45.420;10.952;2022-10-31T09:17:55;101442.69;;;17.85;66.27
23427;BME280;41148;45.420;10.952;2022-10-31T09:20:30;101447.53;;;17.97;66.68
23427;BME280;41148;45.420;10.952;2022-10-31T09:22:58;101440.88;;;18.04;66.02
23427;BME280;41148;45.420;10.952;2022-10-31T09:25:27;101446.16;;;18.07;66.22
23427;BME280;41148;45.420;10.952;2022-10-31T09:28:18;101431.56;;;18.11;66.42
23427;BME280;41148;45.420;10.952;2022-10-31T09:30:50;101437.28;;;18.24;65.77
23427;BME280;41148;45.420;10.952;2022-10-31T09:33:35;101437.81;;;18.30;65.84
23427;BME280;41148;45.420;10.952;2022-10-31T09:36:22;101442.41;;;18.47;65.37
23427;BME280;41148;45.420;10.952;2022-10-31T09:38:51;101437.38;;;18.40;65.97
23427;BME280;41148;45.420;10.952;2022-10-31T09:43:57;101426.59;;;18.40;66.50
23427;BME280;41148;45.420;10.952;2022-10-31T09:49:24;101433.16;;;18.53;66.13
23427;BME280;41148;45.420;10.952;2022-10-31T09:52:03;101437.34;;;18.58;66.02
23427;BME280;41148;45.420;10.952;2022-10-31T09:57:12;101426.41;;;18.62;66.51
23427;BME280;41148;45.420;10.952;2022-10-31T09:59:43;101431.63;;;18.66;66.74
23427;BME280;41148;45.420;10.952;2022-10-31T10:02:28;101433.06;;;18.73;66.63
23427;BME280;41148;45.420;10.952;2022-10-31T10:04:58;101430.69;;;18.84;66.17
23427;BME280;41148;45.420;10.952;2022-10-31T10:10:21;101423.78;;;18.96;65.35
23427;BME280;41148;45.420;10.952;2022-10-31T10:21:14;101418.72;;;19.25;64.60
23427;BME280;41148;45.420;10.952;2022-10-31T10:23:51;101417.34;;;19.33;64.55
23427;BME280;41148;45.420;10.952;2022-10-31T10:26:24;101412.56;;;19.38;64.06
23427;BME280;41148;45.420;10.952;2022-10-31T10:29:01;101408.03;;;19.39;64.04
23427;BME280;41148;45.420;10.952;2022-10-31T10:31:32;101401.53;;;19.43;63.90
23427;BME280;41148;45.420;10.952;2022-10-31T10:34:48;101405.72;;;19.49;63.63
23427;BME280;41148;45.420;10.952;2022-10-31T10:37:01;101403.81;;;19.51;63.58
23427;BME280;41148;45.420;10.952;2022-10-31T10:39:36;101408.03;;;19.56;63.03
23427;BME280;41148;45.420;10.952;2022-10-31T10:42:12;101401.25;;;19.65;63.28
23427;BME280;41148;45.420;10.952;2022-10-31T10:44:58;101398.06;;;19.74;62.88
23427;BME280;41148;45.420;10.952;2022-10-31T10:47:50;101405.13;;;19.77;62.34
23427;BME280;41148;45.420;10.952;2022-10-31T10:50:27;101404.97;;;19.80;62.80
23427;BME280;41148;45.420;10.952;2022-10-31T10:53:13;101400.00;;;19.88;62.61
23427;BME280;41148;45.420;10.952;2022-10-31T10:55:50;101400.44;;;19.96;62.63
23427;BME280;41148;45.420;10.952;2022-10-31T10:58:21;101401.50;;;19.93;62.26
23427;BME280;41148;45.420;10.952;2022-10-31T11:00:48;101396.94;;;19.94;62.43
23427;BME280;41148;45.420;10.952;2022-10-31T11:03:17;101397.72;;;19.96;63.30
23427;BME280;41148;45.420;10.952;2022-10-31T11:05:51;101393.47;;;19.92;62.51
23427;BME280;41148;45.420;10.952;2022-10-31T11:08:26;101388.31;;;19.87;62.42
23427;BME280;41148;45.420;10.952;2022-10-31T11:11:02;101386.47;;;19.88;62.75
23427;BME280;41148;45.420;10.952;2022-10-31T11:13:30;101378.91;;;19.94;62.38
23427;BME280;41148;45.420;10.952;2022-10-31T11:16:02;101380.03;;;20.06;61.88
23427;BME280;41148;45.420;10.952;2022-10-31T11:18:31;101373.94;;;20.18;61.50
23427;BME280;41148;45.420;10.952;2022-10-31T11:20:59;101374.53;;;20.23;61.28
23427;BME280;41148;45.420;10.952;2022-10-31T11:23:28;101373.13;;;20.32;60.99
23427;BME280;41148;45.420;10.952;2022-10-31T11:25:59;101374.13;;;20.47;60.08
23427;BME280;41148;45.420;10.952;2022-10-31T11:28:27;101370.06;;;20.54;60.17
23427;BME280;41148;45.420;10.952;2022-10-31T11:30:59;101368.09;;;20.57;59.73
23427;BME280;41148;45.420;10.952;2022-10-31T11:36:01;101364.84;;;20.67;59.42
23427;BME280;41148;45.420;10.952;2022-10-31T11:38:42;101365.41;;;20.72;59.26
23427;BME280;41148;45.420;10.952;2022-10-31T11:41:14;101366.47;;;20.69;58.89
23427;BME280;41148;45.420;10.952;2022-10-31T11:44:26;101357.19;;;20.73;58.74
23427;BME280;41148;45.420;10.952;2022-10-31T11:46:34;101360.19;;;20.69;59.21
23427;BME280;41148;45.420;10.952;2022-10-31T11:49:02;101356.72;;;20.67;59.51
23427;BME280;41148;45.420;10.952;2022-10-31T11:51:31;101354.34;;;20.61;59.87
23427;BME280;41148;45.420;10.952;2022-10-31T11:54:00;101355.50;;;20.56;59.33
23427;BME280;41148;45.420;10.952;2022-10-31T11:56:38;101361.75;;;20.73;58.17
23427;BME280;41148;45.420;10.952;2022-10-31T11:59:12;101352.75;;;20.72;58.95
23427;BME280;41148;45.420;10.952;2022-10-31T12:01:45;101336.25;;;20.77;58.71
23427;BME280;41148;45.420;10.952;2022-10-31T12:04:14;101342.06;;;20.85;58.01
23427;BME280;41148;45.420;10.952;2022-10-31T12:06:44;101332.50;;;20.94;57.28
23427;BME280;41148;45.420;10.952;2022-10-31T12:09:29;101331.44;;;20.96;57.40
23427;BME280;41148;45.420;10.952;2022-10-31T12:12:05;101332.72;;;21.05;56.98
23427;BME280;41148;45.420;10.952;2022-10-31T12:17:19;101329.81;;;21.08;57.08
23427;BME280;41148;45.420;10.952;2022-10-31T12:20:04;101321.78;;;21.06;57.58
23427;BME280;41148;45.420;10.952;2022-10-31T12:22:36;101327.38;;;21.03;57.89
23427;BME280;41148;45.420;10.952;2022-10-31T12:27:45;101316.47;;;21.05;59.28
23427;BME280;41148;45.420;10.952;2022-10-31T12:30:24;101318.22;;;21.06;59.39
23427;BME280;41148;45.420;10.952;2022-10-31T12:43:25;101284.53;;;20.96;58.55
23427;BME280;41148;45.420;10.952;2022-10-31T12:45:57;101281.44;;;21.02;58.22
23427;BME280;41148;45.420;10.952;2022-10-31T12:56:19;101273.25;;;21.32;57.04
23427;BME280;41148;45.420;10.952;2022-10-31T12:59:14;101272.56;;;21.28;57.20
23427;BME280;41148;45.420;10.952;2022-10-31T13:01:39;101274.00;;;21.20;57.67
23427;BME280;41148;45.420;10.952;2022-10-31T13:06:40;101278.03;;;21.12;57.84
23427;BME280;41148;45.420;10.952;2022-10-31T13:09:18;101270.13;;;21.09;57.94
23427;BME280;41148;45.420;10.952;2022-10-31T13:12:01;101268.97;;;21.13;56.95
23427;BME280;41148;45.420;10.952;2022-10-31T13:14:31;101260.88;;;21.28;56.35
23427;BME280;41148;45.420;10.952;2022-10-31T13:17:00;101256.88;;;21.48;55.32
23427;BME280;41148;45.420;10.952;2022-10-31T13:19:30;101267.34;;;21.39;55.85
23427;BME280;41148;45.420;10.952;2022-10-31T13:22:16;101270.91;;;21.40;55.92
23427;BME280;41148;45.420;10.952;2022-10-31T13:24:48;101257.69;;;21.35;56.24
23427;BME280;41148;45.420;10.952;2022-10-31T13:27:20;101253.59;;;21.28;56.07
23427;BME280;41148;45.420;10.952;2022-10-31T13:30:03;101266.47;;;21.25;55.86
23427;BME280;41148;45.420;10.952;2022-10-31T13:32:48;101261.13;;;21.23;56.38
23427;BME280;41148;45.420;10.952;2022-10-31T13:35:19;101255.78;;;21.22;57.10
23427;BME280;41148;45.420;10.952;2022-10-31T13:40:50;101254.28;;;21.32;56.41
23427;BME280;41148;45.420;10.952;2022-10-31T13:46:21;101246.50;;;21.54;55.71
23427;BME280;41148;45.420;10.952;2022-10-31T13:48:49;101245.16;;;21.47;55.75
23427;BME280;41148;45.420;10.952;2022-10-31T13:51:24;101243.22;;;21.49;55.24
23427;BME280;41148;45.420;10.952;2022-10-31T13:56:22;101246.25;;;21.45;55.65
23427;BME280;41148;45.420;10.952;2022-10-31T14:01:23;101235.34;;;21.59;55.00
23427;BME280;41148;45.420;10.952;2022-10-31T14:04:36;101242.16;;;21.52;55.41
23427;BME280;41148;45.420;10.952;2022-10-31T14:06:55;101241.09;;;21.54;54.60
23427;BME280;41148;45.420;10.952;2022-10-31T14:09:31;101232.38;;;21.49;55.16
23427;BME280;41148;45.420;10.952;2022-10-31T14:12:11;101240.50;;;21.49;54.76
23427;BME280;41148;45.420;10.952;2022-10-31T14:14:43;101245.66;;;21.54;54.69
23427;BME280;41148;45.420;10.952;2022-10-31T14:17:18;101235.84;;;21.51;54.98
23427;BME280;41148;45.420;10.952;2022-10-31T14:22:32;101239.84;;;21.46;55.50
23427;BME280;41148;45.420;10.952;2022-10-31T14:25:26;101237.91;;;21.48;55.44
23427;BME280;41148;45.420;10.952;2022-10-31T14:27:53;101233.06;;;21.53;55.30
23427;BME280;41148;45.420;10.952;2022-10-31T14:30:22;101236.81;;;21.50;55.70
23427;BME280;41148;45.420;10.952;2022-10-31T14:33:00;101246.03;;;21.48;55.75
23427;BME280;41148;45.420;10.952;2022-10-31T14:35:42;101235.78;;;21.38;55.78
23427;BME280;41148;45.420;10.952;2022-10-31T14:38:20;101232.69;;;21.30;56.27
23427;BME280;41148;45.420;10.952;2022-10-31T14:46:38;101227.97;;;21.34;56.49
23427;BME280;41148;45.420;10.952;2022-10-31T14:51:43;101227.38;;;21.29;56.43
23427;BME280;41148;45.420;10.952;2022-10-31T14:54:15;101224.94;;;21.24;56.47